Time;durP1;ratioP1;P1;durP2;ratioP2;P2;SDS_P1;SDS_P2;PMS_P1;PMS_P2;Temp;Humidity;BMP_temperature;BMP_pressure;BME280_temperature;BME280_humidity;BME280_pressure;Samples;Min_cycle;Max_cycle;Signal;HPM_P1;HPM_P2
2023/12/02 00:00:23;;;;;;;8.98;5.88;;;;;;;;;;5051013;28;20072;-80
2023/12/02 00:02:51;;;;;;;5.93;4.53;;;;;;;;;;5053176;28;20052;-80
2023/12/02 00:05:18;;;;;;;8.27;4.75;;;;;;;;;;5052534;28;20045;-80
2023/12/02 00:07:45;;;;;;;6.72;4.97;;;;;;;;;;5068677;28;20051;-81
2023/12/02 00:10:13;;;;;;;8.80;4.80;;;;;;;;;;5068664;28;20061;-81
2023/12/02 00:12:40;;;;;;;5.65;5.07;;;;;;;;;;5050758;28;20063;-81
2023/12/02 00:15:09;;;;;;;7.88;5.68;;;;;;;;;;5068868;28;20051;-81
2023/12/02 00:17:37;;;;;;;8.63;6.00;;;;;;;;;;5051164;28;20411;-81
2023/12/02 00:20:05;;;;;;;5.22;4.70;;;;;;;;;;5058501;28;20051;-81
2023/12/02 00:22:32;;;;;;;6.55;5.57;;;;;;;;;;5069239;28;20056;-81
2023/12/02 00:25:00;;;;;;;7.25;5.38;;;;;;;;;;5051582;28;20059;-81
2023/12/02 00:27:27;;;;;;;7.57;5.00;;;;;;;;;;5068747;28;20044;-81
2023/12/02 00:29:54;;;;;;;7.00;6.30;;;;;;;;;;5068054;28;20057;-81
2023/12/02 00:32:23;;;;;;;9.95;6.72;;;;;;;;;;5047548;28;20049;-81
2023/12/02 00:34:50;;;;;;;8.75;6.15;;;;;;;;;;5054033;28;20052;-81
2023/12/02 00:37:43;;;;;;;8.80;6.65;;;;;;;;;;5067998;28;20047;-81
2023/12/02 00:40:11;;;;;;;8.45;6.63;;;;;;;;;;5067435;28;20414;-81
2023/12/02 00:42:38;;;;;;;8.45;6.82;;;;;;;;;;5047219;28;20048;-80
2023/12/02 00:45:06;;;;;;;9.07;7.18;;;;;;;;;;5054087;28;20052;-80
2023/12/02 00:47:35;;;;;;;7.57;6.53;;;;;;;;;;5054357;28;20052;-80
2023/12/02 00:50:04;;;;;;;8.77;6.88;;;;;;;;;;5053004;28;20052;-80
2023/12/02 00:52:32;;;;;;;10.43;6.43;;;;;;;;;;5054411;28;20411;-80
2023/12/02 00:54:59;;;;;;;7.38;5.68;;;;;;;;;;5050507;28;20063;-81
2023/12/02 00:57:26;;;;;;;9.43;5.93;;;;;;;;;;5053905;28;20048;-81
2023/12/02 00:59:54;;;;;;;7.43;6.65;;;;;;;;;;5087821;28;20044;-81
2023/12/02 01:02:21;;;;;;;9.40;6.78;;;;;;;;;;5071350;28;20052;-80
2023/12/02 01:04:50;;;;;;;9.52;5.80;;;;;;;;;;5070693;28;20119;-80
2023/12/02 01:07:17;;;;;;;10.93;7.82;;;;;;;;;;5054917;28;20422;-80
2023/12/02 01:09:45;;;;;;;7.80;6.00;;;;;;;;;;5086816;28;20047;-80
2023/12/02 01:12:12;;;;;;;6.97;6.30;;;;;;;;;;5053137;28;20045;-80
2023/12/02 01:14:39;;;;;;;7.22;6.07;;;;;;;;;;5054755;28;20057;-80
2023/12/02 01:17:07;;;;;;;9.43;6.82;;;;;;;;;;5071353;28;20054;-80
2023/12/02 01:19:34;;;;;;;7.45;5.57;;;;;;;;;;5072003;28;20051;-80
2023/12/02 01:22:03;;;;;;;9.73;6.95;;;;;;;;;;5071009;28;20045;-80
2023/12/02 01:24:30;;;;;;;7.93;7.05;;;;;;;;;;5053032;28;20043;-81
2023/12/02 01:26:57;;;;;;;8.02;5.90;;;;;;;;;;5052639;28;20044;-81
2023/12/02 01:29:25;;;;;;;8.27;6.53;;;;;;;;;;5069843;28;20044;-81
2023/12/02 01:31:52;;;;;;;9.65;6.97;;;;;;;;;;5088140;28;20048;-81
2023/12/02 01:34:19;;;;;;;7.68;6.60;;;;;;;;;;5049879;28;20049;-81
2023/12/02 01:36:47;;;;;;;9.73;8.70;;;;;;;;;;5054428;28;20049;-81
2023/12/02 01:39:15;;;;;;;9.75;6.50;;;;;;;;;;5068111;28;20056;-81
2023/12/02 01:41:43;;;;;;;9.57;7.80;;;;;;;;;;5090557;22;20056;-78
2023/12/02 01:44:12;;;;;;;7.45;6.03;;;;;;;;;;5021947;28;20083;-78
2023/12/02 01:46:44;;;;;;;8.65;7.55;;;;;;;;;;5012138;28;20056;-78
2023/12/02 01:49:12;;;;;;;10.52;7.78;;;;;;;;;;5026321;28;20056;-78
2023/12/02 01:51:39;;;;;;;10.80;8.07;;;;;;;;;;5054135;28;20045;-79
2023/12/02 01:54:08;;;;;;;9.70;7.22;;;;;;;;;;5037345;28;20518;-79
2023/12/02 01:56:36;;;;;;;8.90;8.00;;;;;;;;;;5048015;28;20057;-81
2023/12/02 01:59:08;;;;;;;9.75;8.65;;;;;;;;;;5035767;28;20052;-80
2023/12/02 02:01:38;;;;;;;9.70;8.20;;;;;;;;;;5039914;28;20495;-80
2023/12/02 02:04:05;;;;;;;9.68;7.95;;;;;;;;;;5066242;28;20048;-80
2023/12/02 02:06:35;;;;;;;8.77;7.40;;;;;;;;;;5043250;28;20049;-80
2023/12/02 02:09:05;;;;;;;10.02;8.32;;;;;;;;;;5035585;28;20047;-80
2023/12/02 02:11:38;;;;;;;9.52;7.45;;;;;;;;;;5037631;28;20053;-80
2023/12/02 02:14:05;;;;;;;12.88;8.40;;;;;;;;;;5036764;28;20053;-80
2023/12/02 02:16:32;;;;;;;10.05;8.38;;;;;;;;;;5073980;28;20043;-80
2023/12/02 02:19:02;;;;;;;11.65;9.60;;;;;;;;;;5064814;28;20041;-80
2023/12/02 02:21:30;;;;;;;9.75;7.28;;;;;;;;;;5026728;28;20052;-80
2023/12/02 02:24:00;;;;;;;10.82;9.35;;;;;;;;;;5042011;28;20048;-80
2023/12/02 02:26:27;;;;;;;9.02;8.10;;;;;;;;;;5040393;28;20475;-80
2023/12/02 02:28:54;;;;;;;10.10;7.28;;;;;;;;;;5036699;28;20410;-81
2023/12/02 02:31:21;;;;;;;9.32;7.47;;;;;;;;;;5037283;28;20060;-81
2023/12/02 02:33:49;;;;;;;10.90;7.88;;;;;;;;;;5034714;28;20056;-81
2023/12/02 02:36:16;;;;;;;9.23;7.93;;;;;;;;;;5045504;28;20106;-81
2023/12/02 02:38:44;;;;;;;10.93;7.93;;;;;;;;;;5038590;28;20045;-81
2023/12/02 02:41:11;;;;;;;10.80;7.25;;;;;;;;;;5023273;28;20061;-81
2023/12/02 02:43:39;;;;;;;8.30;6.85;;;;;;;;;;5045797;28;20053;-81
2023/12/02 02:46:07;;;;;;;10.68;9.50;;;;;;;;;;5061573;28;20048;-81
2023/12/02 02:48:34;;;;;;;9.75;6.82;;;;;;;;;;5063010;28;20052;-81
2023/12/02 02:51:02;;;;;;;6.72;5.38;;;;;;;;;;5066152;28;20060;-81
2023/12/02 02:53:31;;;;;;;9.85;8.43;;;;;;;;;;5063518;28;20068;-81
2023/12/02 02:56:00;;;;;;;10.63;6.82;;;;;;;;;;5050874;28;20049;-81
2023/12/02 02:58:30;;;;;;;9.32;7.15;;;;;;;;;;5050462;28;20068;-81
2023/12/02 03:00:57;;;;;;;9.77;7.50;;;;;;;;;;5063225;28;20045;-81
2023/12/02 03:03:25;;;;;;;8.05;7.00;;;;;;;;;;5047928;28;20408;-81
2023/12/02 03:05:52;;;;;;;8.05;6.82;;;;;;;;;;5063213;28;20060;-81
2023/12/02 03:08:19;;;;;;;7.78;6.20;;;;;;;;;;5043667;28;20363;-81
2023/12/02 03:10:49;;;;;;;10.52;7.50;;;;;;;;;;5043831;28;20045;-81
2023/12/02 03:13:18;;;;;;;10.13;7.80;;;;;;;;;;5055568;28;20049;-81
2023/12/02 03:15:45;;;;;;;7.95;6.47;;;;;;;;;;5041259;28;20056;-81
2023/12/02 03:18:12;;;;;;;9.05;6.15;;;;;;;;;;5058820;28;20061;-81
2023/12/02 03:20:40;;;;;;;7.80;5.20;;;;;;;;;;5056225;28;20056;-82
2023/12/02 03:23:07;;;;;;;8.38;6.35;;;;;;;;;;5066039;28;20048;-82
2023/12/02 03:25:36;;;;;;;8.52;6.80;;;;;;;;;;5058882;28;20049;-81
2023/12/02 03:28:04;;;;;;;6.85;5.22;;;;;;;;;;5043503;28;20048;-81
2023/12/02 03:30:32;;;;;;;7.20;5.43;;;;;;;;;;5060356;28;20399;-81
2023/12/02 03:33:00;;;;;;;6.60;5.97;;;;;;;;;;5042277;28;20056;-81
2023/12/02 03:35:29;;;;;;;6.10;4.93;;;;;;;;;;5061624;28;20045;-81
2023/12/02 03:37:57;;;;;;;8.07;5.47;;;;;;;;;;5046022;28;20053;-81
2023/12/02 03:40:26;;;;;;;5.85;4.32;;;;;;;;;;5063895;28;20041;-81
2023/12/02 03:42:56;;;;;;;5.22;4.10;;;;;;;;;;5064739;28;20056;-81
2023/12/02 03:45:26;;;;;;;7.93;6.50;;;;;;;;;;5053053;28;20052;-81
2023/12/02 03:47:54;;;;;;;6.22;5.03;;;;;;;;;;5071099;28;20056;-81
2023/12/02 03:50:21;;;;;;;7.10;5.15;;;;;;;;;;5065454;28;20056;-81
2023/12/02 03:52:53;;;;;;;6.45;4.95;;;;;;;;;;5065743;28;20053;-81
2023/12/02 03:55:25;;;;;;;10.38;5.63;;;;;;;;;;5062460;28;20056;-81
2023/12/02 03:57:53;;;;;;;6.47;4.78;;;;;;;;;;5061192;28;20060;-81
2023/12/02 04:00:20;;;;;;;8.13;5.65;;;;;;;;;;5058286;28;20041;-81
2023/12/02 04:02:49;;;;;;;6.85;5.32;;;;;;;;;;5040850;28;20064;-81
2023/12/02 04:05:20;;;;;;;7.97;6.22;;;;;;;;;;5074390;28;20056;-81
2023/12/02 04:07:48;;;;;;;9.23;6.35;;;;;;;;;;5061978;28;20065;-81
2023/12/02 04:10:15;;;;;;;8.23;6.05;;;;;;;;;;5043279;28;20049;-81
2023/12/02 04:12:42;;;;;;;7.90;6.20;;;;;;;;;;5063826;28;20045;-81
2023/12/02 04:15:10;;;;;;;8.80;5.85;;;;;;;;;;5044861;28;20049;-81
2023/12/02 04:17:39;;;;;;;8.15;4.82;;;;;;;;;;5061190;28;20391;-81
2023/12/02 04:20:08;;;;;;;7.75;5.63;;;;;;;;;;5041918;28;20041;-81
2023/12/02 04:22:39;;;;;;;9.35;6.85;;;;;;;;;;5060801;28;20041;-81
2023/12/02 04:25:09;;;;;;;8.32;7.00;;;;;;;;;;5059878;28;20049;-81
2023/12/02 04:27:41;;;;;;;9.93;6.55;;;;;;;;;;5044399;28;20049;-81
2023/12/02 04:30:09;;;;;;;7.50;6.68;;;;;;;;;;5042200;28;20052;-81
2023/12/02 04:32:39;;;;;;;7.68;5.50;;;;;;;;;;5050141;28;20048;-81
2023/12/02 04:35:08;;;;;;;6.63;5.82;;;;;;;;;;5061845;28;20040;-81
2023/12/02 04:37:39;;;;;;;7.25;4.55;;;;;;;;;;5068359;28;20037;-81
2023/12/02 04:40:11;;;;;;;8.50;5.53;;;;;;;;;;5043367;28;20037;-82
2023/12/02 04:42:39;;;;;;;7.65;5.93;;;;;;;;;;5060950;28;20056;-81
2023/12/02 04:45:07;;;;;;;9.60;7.22;;;;;;;;;;5043867;28;20044;-81
2023/12/02 04:47:36;;;;;;;10.57;8.35;;;;;;;;;;5041340;28;20056;-81
2023/12/02 04:50:07;;;;;;;5.75;5.15;;;;;;;;;;5042386;28;20053;-82
2023/12/02 04:52:34;;;;;;;5.32;4.75;;;;;;;;;;5053722;28;20063;-82
2023/12/02 04:55:03;;;;;;;7.82;7.05;;;;;;;;;;5059078;28;20049;-82
2023/12/02 04:57:35;;;;;;;7.30;6.47;;;;;;;;;;5059707;28;20071;-81
2023/12/02 05:00:04;;;;;;;7.65;6.75;;;;;;;;;;5061705;28;20044;-82
2023/12/02 05:02:33;;;;;;;10.15;7.20;;;;;;;;;;5038105;28;20057;-82
2023/12/02 05:05:04;;;;;;;7.50;6.20;;;;;;;;;;5060967;28;20033;-82
2023/12/02 05:07:33;;;;;;;7.55;5.00;;;;;;;;;;5061406;28;20045;-82
2023/12/02 05:10:00;;;;;;;8.05;6.43;;;;;;;;;;5059080;28;20045;-82
2023/12/02 05:12:29;;;;;;;9.20;6.38;;;;;;;;;;5059101;28;20057;-82
2023/12/02 05:14:56;;;;;;;8.50;4.95;;;;;;;;;;5044256;28;20045;-82
2023/12/02 05:17:23;;;;;;;8.52;6.72;;;;;;;;;;5059376;28;20041;-81
2023/12/02 05:19:53;;;;;;;9.00;5.22;;;;;;;;;;5060067;28;20036;-81
2023/12/02 05:22:20;;;;;;;7.28;5.35;;;;;;;;;;5036827;28;20067;-81
2023/12/02 05:24:47;;;;;;;6.95;4.90;;;;;;;;;;5054289;28;20045;-81
2023/12/02 05:27:17;;;;;;;4.75;4.20;;;;;;;;;;5057748;28;20056;-81
2023/12/02 05:29:46;;;;;;;7.57;5.50;;;;;;;;;;5059732;28;20546;-81
2023/12/02 05:32:13;;;;;;;5.78;4.70;;;;;;;;;;5059361;28;20052;-81
2023/12/02 05:34:40;;;;;;;6.63;5.13;;;;;;;;;;5060494;28;20041;-81
2023/12/02 05:37:07;;;;;;;7.68;5.45;;;;;;;;;;5058974;28;20049;-82
2023/12/02 05:39:35;;;;;;;5.57;4.72;;;;;;;;;;5059357;28;20395;-82
2023/12/02 05:42:03;;;;;;;6.47;5.88;;;;;;;;;;5042016;28;20060;-81
2023/12/02 05:44:33;;;;;;;6.43;5.03;;;;;;;;;;5058918;28;20064;-82
2023/12/02 05:47:01;;;;;;;8.30;5.25;;;;;;;;;;5059836;28;20514;-81
2023/12/02 05:49:28;;;;;;;5.60;4.10;;;;;;;;;;5042488;28;20056;-81
2023/12/02 05:51:56;;;;;;;7.50;5.22;;;;;;;;;;5042465;28;20060;-81
2023/12/02 05:54:25;;;;;;;9.02;7.43;;;;;;;;;;5058938;28;20052;-81
2023/12/02 05:56:55;;;;;;;6.30;4.78;;;;;;;;;;5042115;28;20061;-81
2023/12/02 05:59:22;;;;;;;7.25;5.45;;;;;;;;;;5057837;28;20061;-81
2023/12/02 06:01:52;;;;;;;6.53;5.38;;;;;;;;;;5056778;28;20045;-81
2023/12/02 06:04:25;;;;;;;8.10;5.13;;;;;;;;;;5042665;28;20045;-81
2023/12/02 06:06:52;;;;;;;6.90;5.63;;;;;;;;;;5043170;28;20053;-81
2023/12/02 06:09:22;;;;;;;8.68;6.30;;;;;;;;;;5042627;28;20053;-81
2023/12/02 06:11:49;;;;;;;9.43;7.20;;;;;;;;;;5042185;28;20055;-82
2023/12/02 06:14:16;;;;;;;7.57;5.15;;;;;;;;;;5042340;28;20053;-82
2023/12/02 06:16:43;;;;;;;6.30;4.75;;;;;;;;;;5042606;28;20049;-80
2023/12/02 06:19:11;;;;;;;8.25;5.20;;;;;;;;;;5042912;28;20055;-81
2023/12/02 06:21:39;;;;;;;10.90;6.30;;;;;;;;;;5044547;28;20044;-80
2023/12/02 06:24:07;;;;;;;6.00;5.13;;;;;;;;;;5047001;28;20049;-80
2023/12/02 06:26:40;;;;;;;5.95;4.50;;;;;;;;;;5065075;28;20044;-81
2023/12/02 06:29:07;;;;;;;6.43;5.20;;;;;;;;;;5046921;28;20048;-81
2023/12/02 06:31:34;;;;;;;5.63;4.47;;;;;;;;;;5063559;28;20041;-81
2023/12/02 06:34:01;;;;;;;6.80;5.80;;;;;;;;;;5063012;28;20049;-81
2023/12/02 06:36:29;;;;;;;8.02;5.95;;;;;;;;;;5060854;28;20060;-81
2023/12/02 06:39:00;;;;;;;6.15;5.10;;;;;;;;;;5045268;28;20045;-81
2023/12/02 06:41:27;;;;;;;6.45;5.70;;;;;;;;;;5045159;28;20053;-82
2023/12/02 06:43:54;;;;;;;7.75;6.20;;;;;;;;;;5068482;28;20068;-81
2023/12/02 06:46:22;;;;;;;6.50;4.53;;;;;;;;;;5063580;28;20557;-81
2023/12/02 06:48:49;;;;;;;7.60;5.35;;;;;;;;;;5060959;28;20045;-81
2023/12/02 06:51:19;;;;;;;6.40;5.30;;;;;;;;;;5061744;28;20515;-81
2023/12/02 06:53:46;;;;;;;7.28;5.32;;;;;;;;;;5046897;28;20057;-81
2023/12/02 06:56:18;;;;;;;10.25;6.45;;;;;;;;;;5045867;28;20064;-82
2023/12/02 06:58:47;;;;;;;8.27;5.88;;;;;;;;;;5061145;28;20057;-81
2023/12/02 07:01:24;;;;;;;6.95;5.72;;;;;;;;;;5059774;28;20064;-81
2023/12/02 07:03:54;;;;;;;8.35;6.25;;;;;;;;;;5066373;28;20052;-81
2023/12/02 07:06:24;;;;;;;7.22;5.50;;;;;;;;;;5046821;28;20049;-81
2023/12/02 07:08:52;;;;;;;7.97;5.72;;;;;;;;;;5059975;28;20052;-82
2023/12/02 07:11:23;;;;;;;6.80;4.45;;;;;;;;;;5039018;28;20044;-80
2023/12/02 07:13:51;;;;;;;5.93;5.03;;;;;;;;;;5059595;28;20037;-80
2023/12/02 07:16:20;;;;;;;8.70;5.40;;;;;;;;;;5060493;28;20045;-81
2023/12/02 07:18:47;;;;;;;8.70;5.57;;;;;;;;;;5059971;28;20041;-81
2023/12/02 07:21:15;;;;;;;6.47;4.20;;;;;;;;;;5046135;28;20041;-81
2023/12/02 07:23:44;;;;;;;7.07;4.57;;;;;;;;;;5044393;28;20053;-80
2023/12/02 07:26:12;;;;;;;8.40;5.53;;;;;;;;;;5046200;28;20053;-80
2023/12/02 07:28:41;;;;;;;9.80;5.93;;;;;;;;;;5061330;28;20036;-80
2023/12/02 07:31:13;;;;;;;7.47;5.22;;;;;;;;;;5042920;28;20037;-81
2023/12/02 07:33:40;;;;;;;5.53;4.07;;;;;;;;;;5063080;28;20052;-80
2023/12/02 07:36:08;;;;;;;6.18;4.38;;;;;;;;;;5041466;28;20239;-81
2023/12/02 08:04:01;;;;;;;5.93;5.10;;;;;;;;;;3359614;22;20939;-91
2023/12/02 11:42:47;;;;;;;5.13;3.42;;;;;;;;;;4989963;28;20084;-79
2023/12/02 11:45:18;;;;;;;3.60;3.20;;;;;;;;;;4985948;28;20050;-80
2023/12/02 11:48:00;;;;;;;3.85;3.45;;;;;;;;;;5002056;28;20714;-80
2023/12/02 11:50:33;;;;;;;3.85;3.47;;;;;;;;;;5008685;28;20056;-80
2023/12/02 11:53:14;;;;;;;5.13;4.10;;;;;;;;;;5006002;28;20046;-80
2023/12/02 11:55:44;;;;;;;5.90;5.00;;;;;;;;;;5000224;28;20053;-80
2023/12/02 11:58:15;;;;;;;7.38;5.20;;;;;;;;;;5009373;28;20060;-80
2023/12/02 12:00:49;;;;;;;6.40;5.00;;;;;;;;;;4994861;28;20058;-80
2023/12/02 12:03:45;;;;;;;6.97;5.78;;;;;;;;;;5011918;28;20064;-79
2023/12/02 12:06:20;;;;;;;6.07;4.13;;;;;;;;;;4995294;28;20046;-79
2023/12/02 12:08:55;;;;;;;6.30;5.38;;;;;;;;;;5011464;28;20065;-79
2023/12/02 12:11:23;;;;;;;7.80;5.18;;;;;;;;;;4996007;28;20072;-79
2023/12/02 12:13:51;;;;;;;6.45;5.18;;;;;;;;;;5009249;28;20501;-80
2023/12/02 12:16:19;;;;;;;9.15;7.28;;;;;;;;;;5008819;28;20056;-79
2023/12/02 12:18:46;;;;;;;7.32;5.07;;;;;;;;;;5002238;28;20239;-79
2023/12/02 12:42:36;;;;;;;6.22;4.40;;;;;;;;;;5311981;22;20069;-79
2023/12/02 12:45:05;;;;;;;6.32;4.53;;;;;;;;;;5000588;28;20084;-79
2023/12/02 12:47:33;;;;;;;5.22;4.68;;;;;;;;;;5036858;28;20379;-79
2023/12/02 12:50:03;;;;;;;6.07;4.95;;;;;;;;;;5005066;28;20053;-79
2023/12/02 12:52:32;;;;;;;4.32;3.50;;;;;;;;;;5022549;28;20046;-79
2023/12/02 12:55:01;;;;;;;5.10;3.60;;;;;;;;;;5021761;28;20049;-79
2023/12/02 13:25:04;;;;;;;4.13;2.75;;;;;;;;;;5079741;22;20049;-80
2023/12/02 13:28:08;;;;;;;3.67;3.08;;;;;;;;;;5012290;28;20184;-80
2023/12/02 13:31:02;;;;;;;3.70;2.92;;;;;;;;;;4986593;28;20079;-80
2023/12/02 13:34:00;;;;;;;5.40;3.28;;;;;;;;;;4986600;28;20061;-80
2023/12/02 13:41:29;;;;;;;6.63;3.35;;;;;;;;;;5054978;23;20052;-80
2023/12/02 13:44:36;;;;;;;5.50;4.90;;;;;;;;;;5031076;28;20060;-79
2023/12/02 13:47:25;;;;;;;6.13;4.72;;;;;;;;;;5037566;28;20060;-80
2023/12/02 13:49:56;;;;;;;3.55;3.15;;;;;;;;;;5019876;28;20060;-80
2023/12/02 13:52:38;;;;;;;11.00;5.90;;;;;;;;;;5016090;28;20072;-80
2023/12/02 13:55:22;;;;;;;6.32;4.93;;;;;;;;;;5038080;28;20076;-80
2023/12/02 13:58:04;;;;;;;5.82;4.57;;;;;;;;;;5031796;28;20065;-80
2023/12/02 14:00:44;;;;;;;5.07;4.18;;;;;;;;;;5003070;28;20526;-80
2023/12/02 14:03:24;;;;;;;6.72;5.88;;;;;;;;;;5031068;28;20037;-80
2023/12/02 14:05:59;;;;;;;6.70;4.80;;;;;;;;;;5036543;28;20057;-81
2023/12/02 14:08:30;;;;;;;5.10;4.60;;;;;;;;;;5019767;28;20041;-80
2023/12/02 14:11:00;;;;;;;5.95;5.22;;;;;;;;;;5003791;28;20045;-81
2023/12/02 14:13:42;;;;;;;3.25;2.95;;;;;;;;;;5018579;28;20500;-80
2023/12/02 14:16:24;;;;;;;5.90;3.13;;;;;;;;;;5019153;28;20061;-80
2023/12/02 14:19:22;;;;;;;3.70;3.40;;;;;;;;;;4995562;28;20054;-80
2023/12/02 14:22:10;;;;;;;6.50;4.55;;;;;;;;;;5014237;28;20053;-80
2023/12/02 14:25:23;;;;;;;5.95;3.30;;;;;;;;;;4994204;28;20046;-80
2023/12/02 14:28:15;;;;;;;5.05;3.78;;;;;;;;;;4999367;28;20049;-80
2023/12/02 14:31:40;;;;;;;;;;;;;;;;;;;;;
2023/12/02 14:34:30;;;;;;;4.95;4.45;;;;;;;;;;5011584;28;20053;-80
2023/12/02 14:37:40;;;;;;;5.05;4.13;;;;;;;;;;5031009;28;20234;-80
2023/12/02 14:40:35;;;;;;;5.38;4.05;;;;;;;;;;5019371;28;20057;-80
2023/12/02 14:43:33;;;;;;;5.45;3.92;;;;;;;;;;5018649;28;20060;-80
2023/12/02 14:46:54;;;;;;;5.38;3.45;;;;;;;;;;5005710;28;20057;-80
2023/12/02 14:49:27;;;;;;;8.02;4.43;;;;;;;;;;5022421;28;20053;-80
2023/12/02 14:52:03;;;;;;;5.72;4.13;;;;;;;;;;5021455;28;20509;-80
2023/12/02 14:54:39;;;;;;;8.63;6.93;;;;;;;;;;5015975;28;20045;-80
2023/12/02 14:57:29;;;;;;;;;;;;;;;;;;;;;
2023/12/02 15:00:20;;;;;;;5.97;5.20;;;;;;;;;;4996305;28;20050;-80
2023/12/02 15:02:51;;;;;;;6.88;4.22;;;;;;;;;;5018678;28;20049;-80
2023/12/02 15:05:30;;;;;;;3.70;3.40;;;;;;;;;;5018926;28;20050;-80
2023/12/02 15:08:13;;;;;;;6.00;4.07;;;;;;;;;;5024867;28;20038;-80
2023/12/02 15:10:43;;;;;;;4.80;3.42;;;;;;;;;;5011746;28;20054;-81
2023/12/02 15:13:11;;;;;;;5.50;4.70;;;;;;;;;;5022762;28;20064;-80
2023/12/02 15:15:40;;;;;;;6.30;4.25;;;;;;;;;;4986109;28;20529;-80
2023/12/02 15:18:08;;;;;;;4.18;3.83;;;;;;;;;;5015541;28;20053;-80
2023/12/02 15:20:37;;;;;;;5.32;3.17;;;;;;;;;;5039180;28;20053;-80
2023/12/02 15:23:40;;;;;;;5.60;3.97;;;;;;;;;;5020956;28;20381;-80
2023/12/02 15:26:12;;;;;;;4.78;4.00;;;;;;;;;;4965493;28;20045;-80
2023/12/02 15:28:48;;;;;;;4.57;3.25;;;;;;;;;;5018470;28;20057;-80
2023/12/02 15:31:27;;;;;;;4.50;4.10;;;;;;;;;;5027259;28;20053;-80
2023/12/02 15:33:55;;;;;;;6.07;4.38;;;;;;;;;;5022976;28;20045;-80
2023/12/02 15:36:25;;;;;;;5.35;3.95;;;;;;;;;;4998677;28;20046;-80
2023/12/02 15:38:54;;;;;;;6.65;4.28;;;;;;;;;;5006993;28;20069;-80
2023/12/02 15:41:22;;;;;;;5.97;3.88;;;;;;;;;;5021837;28;20045;-80
2023/12/02 15:43:52;;;;;;;6.43;5.43;;;;;;;;;;5022609;28;20053;-80
2023/12/02 15:46:19;;;;;;;8.43;4.55;;;;;;;;;;5039792;28;20079;-80
2023/12/02 15:48:46;;;;;;;4.32;3.25;;;;;;;;;;5022646;28;20049;-80
2023/12/02 15:51:19;;;;;;;5.63;3.63;;;;;;;;;;5037231;28;20049;-80
2023/12/02 15:53:51;;;;;;;6.05;4.20;;;;;;;;;;5005374;28;20053;-80
2023/12/02 15:56:19;;;;;;;6.63;4.63;;;;;;;;;;5020315;28;20045;-80
2023/12/02 15:58:50;;;;;;;5.72;4.78;;;;;;;;;;5021663;28;20052;-80
2023/12/02 16:01:20;;;;;;;6.55;4.45;;;;;;;;;;5021254;28;20049;-80
2023/12/02 16:03:50;;;;;;;5.18;3.83;;;;;;;;;;5023165;28;20050;-80
2023/12/02 16:06:22;;;;;;;6.20;5.25;;;;;;;;;;5021711;28;20053;-80
2023/12/02 16:08:50;;;;;;;6.85;4.78;;;;;;;;;;5004213;28;20100;-80
2023/12/02 16:11:20;;;;;;;7.95;4.15;;;;;;;;;;5021703;28;20049;-80
2023/12/02 16:13:47;;;;;;;5.78;3.95;;;;;;;;;;5005408;28;20053;-80
2023/12/02 16:16:17;;;;;;;5.15;4.35;;;;;;;;;;5021808;28;20056;-80
2023/12/02 16:18:45;;;;;;;5.80;4.38;;;;;;;;;;5020684;28;20088;-80
2023/12/02 16:21:19;;;;;;;8.65;4.60;;;;;;;;;;5019286;28;20049;-80
2023/12/02 16:23:47;;;;;;;6.53;4.65;;;;;;;;;;5003413;28;20451;-81
2023/12/02 16:26:17;;;;;;;6.13;4.78;;;;;;;;;;5016937;28;20054;-80
2023/12/02 16:28:46;;;;;;;5.05;3.33;;;;;;;;;;4999683;28;20411;-80
2023/12/02 16:31:14;;;;;;;5.10;4.22;;;;;;;;;;5016132;28;20507;-80
2023/12/02 16:33:42;;;;;;;6.40;4.47;;;;;;;;;;5003457;28;20045;-80
2023/12/02 16:36:10;;;;;;;6.53;3.85;;;;;;;;;;4986875;28;20050;-80
2023/12/02 16:38:40;;;;;;;6.75;4.75;;;;;;;;;;5014210;28;20103;-80
2023/12/02 16:41:07;;;;;;;8.55;5.80;;;;;;;;;;5012933;28;20049;-80
2023/12/02 16:43:36;;;;;;;4.85;3.22;;;;;;;;;;5000245;28;20037;-81
2023/12/02 16:46:04;;;;;;;5.38;3.47;;;;;;;;;;4998463;28;20042;-80
2023/12/02 16:48:34;;;;;;;4.97;4.40;;;;;;;;;;5018314;28;20061;-80
2023/12/02 16:51:06;;;;;;;4.97;3.80;;;;;;;;;;5033070;28;20033;-80
2023/12/02 16:53:37;;;;;;;6.30;4.65;;;;;;;;;;5023961;28;20107;-80
2023/12/02 16:56:05;;;;;;;8.48;5.18;;;;;;;;;;5004928;28;20041;-80
2023/12/02 16:58:36;;;;;;;6.80;4.32;;;;;;;;;;5037366;28;20133;-80
2023/12/02 17:01:09;;;;;;;6.03;4.18;;;;;;;;;;5002072;28;20052;-80
2023/12/02 17:03:40;;;;;;;9.25;5.55;;;;;;;;;;5022272;28;20048;-80
2023/12/02 17:06:12;;;;;;;7.28;5.38;;;;;;;;;;5003255;28;20541;-80
2023/12/02 17:08:42;;;;;;;8.25;6.22;;;;;;;;;;5004885;28;20049;-80
2023/12/02 17:11:11;;;;;;;7.05;5.40;;;;;;;;;;5005196;28;20045;-80
2023/12/02 17:13:48;;;;;;;7.13;5.55;;;;;;;;;;5019654;28;20057;-80
2023/12/02 17:16:47;;;;;;;8.18;6.63;;;;;;;;;;5003918;28;20045;-80
2023/12/02 17:19:18;;;;;;;8.45;6.65;;;;;;;;;;5016562;28;20049;-80
2023/12/02 17:21:48;;;;;;;8.05;6.63;;;;;;;;;;5020685;28;20049;-80
2023/12/02 17:24:20;;;;;;;11.88;7.45;;;;;;;;;;5002748;28;20451;-80
2023/12/02 17:26:52;;;;;;;10.02;8.00;;;;;;;;;;5004614;28;20049;-80
2023/12/02 17:29:24;;;;;;;8.27;6.13;;;;;;;;;;5004304;28;20064;-80
2023/12/02 17:31:52;;;;;;;6.65;6.00;;;;;;;;;;5021040;28;20058;-80
2023/12/02 17:34:22;;;;;;;8.25;6.68;;;;;;;;;;5020552;28;20046;-80
2023/12/02 17:36:53;;;;;;;10.65;7.88;;;;;;;;;;5020180;28;20060;-80
2023/12/02 17:39:23;;;;;;;8.88;6.82;;;;;;;;;;5037874;28;20056;-80
2023/12/02 17:41:50;;;;;;;7.10;5.82;;;;;;;;;;5003460;28;20049;-80
2023/12/02 17:44:19;;;;;;;10.18;6.65;;;;;;;;;;5020456;28;20056;-80
2023/12/02 17:46:48;;;;;;;7.82;6.05;;;;;;;;;;5004535;28;20060;-80
2023/12/02 17:49:19;;;;;;;6.78;5.57;;;;;;;;;;5010525;28;20073;-80
2023/12/02 17:51:50;;;;;;;8.45;7.10;;;;;;;;;;5033240;28;20050;-80
2023/12/02 17:54:20;;;;;;;6.50;5.13;;;;;;;;;;5033621;28;20064;-80
2023/12/02 17:56:47;;;;;;;8.02;6.90;;;;;;;;;;4996316;28;20049;-80
2023/12/02 17:59:14;;;;;;;8.32;5.88;;;;;;;;;;5018022;28;20045;-80
2023/12/02 18:01:44;;;;;;;6.80;5.38;;;;;;;;;;5033918;28;20052;-80
2023/12/02 18:04:13;;;;;;;7.57;6.75;;;;;;;;;;5001531;28;20057;-80
2023/12/02 18:06:40;;;;;;;9.15;7.15;;;;;;;;;;5000412;28;20061;-80
2023/12/02 18:09:07;;;;;;;6.93;5.57;;;;;;;;;;4999730;28;20054;-80
2023/12/02 18:11:37;;;;;;;6.95;5.95;;;;;;;;;;5018666;28;20049;-80
2023/12/02 18:14:04;;;;;;;9.48;6.85;;;;;;;;;;5013209;28;20443;-79
2023/12/02 18:16:31;;;;;;;11.20;8.73;;;;;;;;;;4995952;28;20041;-79
2023/12/02 18:19:03;;;;;;;8.98;7.53;;;;;;;;;;5023045;28;20087;-79
2023/12/02 18:21:33;;;;;;;9.07;7.28;;;;;;;;;;5000790;28;20050;-79
2023/12/02 18:24:02;;;;;;;13.40;8.30;;;;;;;;;;5005974;28;20053;-79
2023/12/02 18:26:29;;;;;;;11.15;6.72;;;;;;;;;;5018434;28;20057;-79
2023/12/02 18:28:59;;;;;;;7.82;6.65;;;;;;;;;;5023096;28;20061;-79
2023/12/02 18:31:26;;;;;;;9.77;7.82;;;;;;;;;;5005723;28;20065;-79
2023/12/02 18:33:56;;;;;;;12.18;7.90;;;;;;;;;;5004609;28;20049;-79
2023/12/02 18:36:23;;;;;;;10.48;7.78;;;;;;;;;;5032251;28;20053;-79
2023/12/02 18:38:51;;;;;;;9.30;6.93;;;;;;;;;;5037784;28;20045;-79
2023/12/02 18:41:19;;;;;;;13.52;7.25;;;;;;;;;;4995419;28;20057;-79
2023/12/02 18:43:46;;;;;;;9.63;7.75;;;;;;;;;;4997157;28;20049;-79
2023/12/02 18:46:15;;;;;;;8.02;6.40;;;;;;;;;;5016195;28;20052;-79
2023/12/02 18:48:43;;;;;;;9.25;7.45;;;;;;;;;;5016297;28;20037;-79
2023/12/02 18:51:10;;;;;;;10.40;7.03;;;;;;;;;;5039337;28;20468;-79
2023/12/02 18:53:37;;;;;;;7.88;6.45;;;;;;;;;;5046420;28;20048;-79
2023/12/02 18:56:10;;;;;;;11.50;8.15;;;;;;;;;;5026150;28;20060;-79
2023/12/02 18:58:39;;;;;;;9.15;6.97;;;;;;;;;;5007527;28;20053;-79
2023/12/02 19:01:09;;;;;;;7.45;5.70;;;;;;;;;;5014454;28;20061;-79
2023/12/02 19:03:36;;;;;;;8.80;5.55;;;;;;;;;;5034576;28;20407;-79
2023/12/02 19:06:06;;;;;;;8.93;4.82;;;;;;;;;;5022245;28;20061;-79
2023/12/02 19:08:34;;;;;;;9.10;5.78;;;;;;;;;;5009016;28;20055;-79
2023/12/02 19:11:03;;;;;;;7.05;6.00;;;;;;;;;;5009936;28;20053;-79
2023/12/02 19:13:37;;;;;;;8.27;6.55;;;;;;;;;;5044953;28;20479;-79
2023/12/02 19:16:04;;;;;;;9.30;6.45;;;;;;;;;;5042289;28;20045;-79
2023/12/02 19:18:32;;;;;;;7.70;5.38;;;;;;;;;;5026218;28;20054;-79
2023/12/02 19:20:59;;;;;;;7.22;5.75;;;;;;;;;;5028028;28;20063;-79
2023/12/02 19:23:31;;;;;;;6.03;5.45;;;;;;;;;;5026349;28;20060;-79
2023/12/02 19:25:58;;;;;;;7.53;6.03;;;;;;;;;;5010374;28;20048;-79
2023/12/02 19:28:26;;;;;;;6.20;4.50;;;;;;;;;;5024891;28;20042;-79
2023/12/02 19:30:54;;;;;;;5.72;4.60;;;;;;;;;;5006252;28;20053;-79
2023/12/02 19:33:22;;;;;;;7.68;5.40;;;;;;;;;;5000019;28;20049;-79
2023/12/02 19:35:49;;;;;;;9.30;6.15;;;;;;;;;;5015252;28;20057;-79
2023/12/02 19:38:21;;;;;;;7.45;5.00;;;;;;;;;;4999494;28;22041;-79
2023/12/02 19:40:53;;;;;;;7.15;5.38;;;;;;;;;;5035747;22;20408;-78
2023/12/02 19:43:23;;;;;;;11.10;7.28;;;;;;;;;;5035936;28;20055;-80
2023/12/02 19:45:50;;;;;;;6.88;5.25;;;;;;;;;;5039691;28;20060;-81
2023/12/02 19:48:21;;;;;;;7.63;5.80;;;;;;;;;;5026346;28;20049;-79
2023/12/02 19:50:48;;;;;;;8.63;5.72;;;;;;;;;;5062227;28;20566;-80
2023/12/02 19:53:15;;;;;;;7.57;6.10;;;;;;;;;;5063343;28;20053;-81
2023/12/02 19:55:43;;;;;;;8.75;5.80;;;;;;;;;;5024351;28;20060;-80
2023/12/02 19:58:12;;;;;;;7.55;6.22;;;;;;;;;;5061572;28;20049;-80
2023/12/02 20:00:42;;;;;;;7.72;6.35;;;;;;;;;;5043100;28;20061;-80